Time;durP1;ratioP1;P1;durP2;ratioP2;P2;SDS_P1;SDS_P2;PMS_P1;PMS_P2;Temp;Humidity;BMP_temperature;BMP_pressure;BME280_temperature;BME280_humidity;BME280_pressure;Samples;Min_cycle;Max_cycle;Signal;HPM_P1;HPM_P2
2023/01/23 00:02:26;;;;;;;;;;;3.40;95.20;;;3.95;64.09;99920.00;5047742;27;124396;-72
2023/01/23 00:04:52;;;;;;;;;;;3.40;95.20;;;3.94;64.76;99912.88;5061782;27;107678;-72
2023/01/23 00:07:18;;;;;;;;;;;3.40;95.10;;;3.93;64.44;99911.22;5056296;27;106987;-72
2023/01/23 00:09:45;;;;;;;;;;;3.40;95.10;;;3.92;64.41;99917.78;5058894;27;124479;-72
2023/01/23 00:12:11;;;;;;;;;;;3.40;95.10;;;3.95;64.88;99911.81;5057397;27;123856;-72
2023/01/23 00:14:37;;;;;;;;;;;3.40;95.10;;;3.94;64.31;99912.88;5059093;27;107541;-72
2023/01/23 00:17:03;;;;;;;;;;;3.40;95.10;;;3.94;64.50;99909.31;5066842;27;107028;-72
2023/01/23 00:19:30;;;;;;;;;;;3.40;95.10;;;3.95;64.54;99914.53;5057957;27;124244;-72
2023/01/23 00:21:58;;;;;;;;;;;3.40;95.10;;;3.94;64.55;99907.41;5060009;27;123798;-72
2023/01/23 00:24:24;;;;;;;;;;;3.40;95.00;;;3.92;64.20;99906.84;5055004;27;106950;-72
2023/01/23 00:26:51;;;;;;;;;;;3.40;95.00;;;3.86;64.68;99910.50;5064118;27;107293;-72
2023/01/23 00:29:17;;;;;;;;;;;3.30;95.00;;;3.84;64.09;99911.81;5061801;27;126768;-72
2023/01/23 00:31:44;;;;;;;;;;;3.30;95.00;;;3.83;64.35;99915.63;5061293;27;123492;-72
2023/01/23 00:34:13;;;;;;;;;;;3.30;95.00;;;3.80;64.45;99916.94;5046642;27;107887;-72
2023/01/23 00:36:41;;;;;;;;;;;3.30;95.00;;;3.78;64.52;99921.81;5061266;27;107192;-72
2023/01/23 00:39:14;;;;;;;;;;;2.20;94.60;;;3.79;64.31;99917.19;5057163;27;124264;-72
2023/01/23 00:41:40;;;;;;;;;;;3.30;95.10;;;3.79;64.67;99920.75;5052950;27;124741;-72
2023/01/23 00:44:06;;;;;;;;;;;3.30;95.10;;;3.79;64.72;99909.84;5059976;27;107451;-71
2023/01/23 00:46:33;;;;;;;;;;;3.30;95.00;;;3.83;64.90;99912.91;5036689;27;106402;-72
2023/01/23 00:48:59;;;;;;;;;;;3.30;95.00;;;3.86;64.53;99910.50;5050946;27;124804;-72
2023/01/23 00:51:26;;;;;;;;;;;3.40;95.10;;;3.88;64.45;99910.28;5048298;27;123454;-73
2023/01/23 00:53:52;;;;;;;;;;;3.40;95.00;;;3.90;64.50;99917.16;5034570;27;106741;-73
2023/01/23 00:56:18;;;;;;;;;;;3.40;95.00;;;3.91;64.53;99913.34;5049035;27;106893;-73
2023/01/23 00:58:45;;;;;;;;;;;3.40;95.00;;;3.89;64.01;99904.56;5046834;27;125424;-73
2023/01/23 01:01:12;;;;;;;;;;;3.40;94.90;;;3.87;64.43;99911.34;5043816;27;123436;-72
2023/01/23 01:03:39;;;;;;;;;;;3.40;94.90;;;3.84;63.76;99900.88;5039012;27;109691;-73
2023/01/23 01:06:05;;;;;;;;;;;3.30;94.90;;;3.82;64.21;99905.78;5046853;27;108110;-72
2023/01/23 01:08:31;;;;;;;;;;;3.30;94.80;;;3.80;64.10;99916.94;5041131;27;124341;-72
2023/01/23 01:10:58;;;;;;;;;;;3.30;94.80;;;3.76;63.61;99913.03;5048162;27;123705;-73
2023/01/23 01:13:25;;;;;;;;;;;3.20;94.70;;;3.73;64.19;99918.97;5034604;27;109298;-72
2023/01/23 01:15:52;;;;;;;;;;;3.20;94.70;;;3.73;63.79;99932.63;5049831;27;109643;-72
2023/01/23 01:18:19;;;;;;;;;;;3.20;94.70;;;3.73;63.76;99927.16;5035153;27;123331;-72
2023/01/23 01:20:46;;;;;;;;;;;3.20;94.70;;;3.76;63.84;99940.34;5042761;27;123808;-72
2023/01/23 01:23:12;;;;;;;;;;;3.20;94.70;;;3.80;63.58;99938.81;5049030;27;109881;-72
2023/01/23 01:25:39;;;;;;;;;;;3.30;94.70;;;3.82;63.69;99942.16;5048287;27;108679;-72
2023/01/23 01:28:06;;;;;;;;;;;3.30;94.70;;;3.83;63.59;99943.81;5037971;27;123065;-72
2023/01/23 01:30:32;;;;;;;;;;;3.40;94.70;;;3.83;63.84;99949.25;5037296;27;122995;-72
2023/01/23 01:32:58;;;;;;;;;;;3.30;94.50;;;3.81;63.57;99945.94;5036620;27;109361;-72
2023/01/23 01:35:26;;;;;;;;;;;3.30;94.60;;;3.80;63.19;99944.28;5032237;27;108763;-72
2023/01/23 01:37:52;;;;;;;;;;;3.30;94.60;;;3.80;63.73;99941.56;5037975;27;124038;-73
2023/01/23 01:40:23;;;;;;;;;;;3.30;94.50;;;3.77;63.79;99944.75;5033083;27;123837;-73
2023/01/23 01:42:56;;;;;;;;;;;3.20;94.50;;;3.78;63.64;99951.06;5038697;27;109942;-73
2023/01/23 01:46:00;;;;;;;;;;;3.20;94.50;;;3.81;63.18;99951.41;5031184;27;107450;-71
2023/01/23 01:48:31;;;;;;;;;;;3.30;94.60;;;3.77;63.44;99947.50;5034745;27;124460;-72
2023/01/23 01:50:59;;;;;;;;;;;3.20;94.50;;;3.73;63.67;99954.50;5039348;27;123264;-73
2023/01/23 01:53:28;;;;;;;;;;;3.20;94.60;;;3.70;63.88;99952.25;5032663;27;109448;-73
2023/01/23 01:55:55;;;;;;;;;;;3.10;94.60;;;3.66;63.56;99956.53;5048447;27;109239;-73
2023/01/23 01:58:22;;;;;;;;;;;3.10;94.60;;;3.69;63.86;99950.59;5040638;27;123948;-73
2023/01/23 02:00:48;;;;;;;;;;;3.20;94.70;;;3.73;63.94;99962.69;5041691;27;124009;-73
2023/01/23 02:03:15;;;;;;;;;;;3.20;94.70;;;3.76;63.59;99954.00;5046386;27;109351;-72
2023/01/23 02:05:43;;;;;;;;;;;3.20;94.60;;;3.77;63.97;99955.69;5049047;27;109778;-73
2023/01/23 02:08:26;;;;;;;;;;;3.20;94.70;;;3.80;63.73;99957.94;5047983;27;124418;-73
2023/01/23 02:10:52;;;;;;;;;;;3.20;94.70;;;3.73;63.80;99960.81;5043888;27;124026;-73
2023/01/23 02:13:37;;;;;;;;;;;3.20;94.70;;;3.72;63.84;99958.31;5051274;27;107475;-73
2023/01/23 02:16:31;;;;;;;;;;;3.20;94.70;;;3.68;63.59;99965.31;5046285;27;108856;-73
2023/01/23 02:19:01;;;;;;;;;;;3.10;94.70;;;3.64;63.80;99961.41;5037219;27;124348;-73
2023/01/23 02:21:28;;;;;;;;;;;3.10;94.80;;;3.63;64.09;99960.59;5045073;27;124160;-73
2023/01/23 02:24:07;;;;;;;;;;;3.10;94.80;;;3.64;64.16;99962.22;5046912;27;108876;-73
2023/01/23 02:26:35;;;;;;;;;;;3.10;94.80;;;3.64;64.20;99956.78;5044231;27;108776;-73
2023/01/23 02:29:03;;;;;;;;;;;3.10;94.80;;;3.67;64.07;99967.22;5045529;27;123394;-73
2023/01/23 02:31:29;;;;;;;;;;;3.10;94.80;;;3.69;64.28;99964.25;5047902;27;124649;-73
2023/01/23 02:33:58;;;;;;;;;;;3.10;94.90;;;3.69;64.54;99962.34;5051687;27;109021;-74
2023/01/23 02:36:27;;;;;;;;;;;3.10;94.90;;;3.71;64.29;99951.19;5039031;27;107682;-73
2023/01/23 02:39:02;;;;;;;;;;;3.20;94.90;;;3.73;64.44;99949.88;5051206;27;124172;-73
2023/01/23 02:41:35;;;;;;;;;;;3.20;94.90;;;3.79;64.17;99950.84;5048495;27;123626;-73
2023/01/23 02:44:08;;;;;;;;;;;3.30;94.90;;;3.83;64.11;99954.72;5040854;27;109543;-73
2023/01/23 02:46:35;;;;;;;;;;;3.30;94.90;;;3.84;64.15;99948.22;5039635;27;108853;-73
2023/01/23 02:49:01;;;;;;;;;;;3.30;94.90;;;3.82;64.49;99953.09;5038954;27;124214;-73
2023/01/23 02:51:27;;;;;;;;;;;3.30;94.80;;;3.82;63.76;99955.81;5035893;27;124184;-73
2023/01/23 02:53:54;;;;;;;;;;;3.80;95.00;;;3.82;63.84;99958.56;5048014;27;110567;-73
2023/01/23 02:56:20;;;;;;;;;;;3.30;94.80;;;3.83;63.76;99949.25;5053941;27;109683;-73
2023/01/23 03:01:34;;;;;;;;;;;3.30;94.80;;;3.84;64.00;99955.56;5043395;27;126362;-73
2023/01/23 03:04:02;;;;;;;;;;;3.30;94.70;;;3.82;64.23;99964.03;5047814;27;109447;-73
2023/01/23 03:06:34;;;;;;;;;;;3.30;94.70;;;3.79;63.82;99961.75;5043908;27;109449;-74
2023/01/23 03:09:04;;;;;;;;;;;3.20;94.70;;;3.80;63.66;99966.16;5046573;27;123944;-74
2023/01/23 03:11:31;;;;;;;;;;;3.20;94.80;;;3.79;64.02;99948.09;5048380;27;123453;-73
2023/01/23 03:13:57;;;;;;;;;;;3.20;94.70;;;3.78;64.15;99954.63;5048923;27;109237;-73
2023/01/23 03:16:23;;;;;;;;;;;3.20;94.80;;;3.79;63.74;99960.91;5041976;27;109024;-73
2023/01/23 03:18:50;;;;;;;;;;;3.30;94.80;;;3.81;64.12;99958.78;5051946;27;124544;-73
2023/01/23 03:21:16;;;;;;;;;;;3.30;94.80;;;3.81;63.88;99951.41;5051608;27;123821;-73
2023/01/23 03:23:45;;;;;;;;;;;3.30;94.80;;;3.81;63.89;99953.31;5032831;27;109389;-73
2023/01/23 03:26:12;;;;;;;;;;;3.30;94.80;;;3.80;64.01;99954.38;5038361;27;108652;-73
2023/01/23 03:31:23;;;;;;;;;;;3.30;94.80;;;3.84;63.86;99959.16;5040042;27;125885;-73
2023/01/23 03:33:49;;;;;;;;;;;3.30;94.80;;;3.86;64.02;99959.72;5033479;27;108822;-73
2023/01/23 03:36:15;;;;;;;;;;;3.30;94.70;;;3.88;63.81;99951.28;5039474;27;108965;-72
2023/01/23 03:41:23;;;;;;;;;;;3.40;94.80;;;3.91;63.70;99957.09;5038759;27;124149;-73
2023/01/23 03:41:28;;;;;;;;;;;3.40;94.70;;;3.91;64.07;99957.09;5036239;27;123684;-73
2023/01/23 03:43:55;;;;;;;;;;;3.40;94.70;;;3.90;63.75;99955.44;5038637;27;109493;-73
2023/01/23 03:46:22;;;;;;;;;;;3.40;94.70;;;3.90;63.05;99949.97;5054381;27;109869;-73
2023/01/23 03:48:48;;;;;;;;;;;3.40;94.70;;;3.89;64.04;99944.75;5049822;27;124337;-73
2023/01/23 03:51:14;;;;;;;;;;;3.30;94.60;;;3.86;64.16;99945.22;5051771;27;123938;-73
2023/01/23 03:53:40;;;;;;;;;;;3.30;94.60;;;3.81;63.41;99950.56;5052327;27;109719;-73
2023/01/23 03:56:09;;;;;;;;;;;3.30;94.70;;;3.79;63.61;99955.44;5063294;27;108629;-73
2023/01/23 03:58:35;;;;;;;;;;;3.20;94.70;;;3.79;63.86;99952.72;5071871;27;124187;-73
2023/01/23 04:01:05;;;;;;;;;;;3.20;94.70;;;3.81;64.08;99956.88;5052002;27;123922;-73
2023/01/23 04:03:32;;;;;;;;;;;3.30;94.80;;;3.85;63.92;99954.50;5071571;27;109397;-73
2023/01/23 04:05:58;;;;;;;;;;;3.30;94.70;;;3.88;63.93;99956.75;5067666;27;108584;-73
2023/01/23 04:08:24;;;;;;;;;;;3.40;94.70;;;3.87;63.71;99961.41;5054116;27;123908;-73
2023/01/23 04:10:51;;;;;;;;;;;3.30;94.70;;;3.89;63.83;99958.41;5074982;27;123728;-73
2023/01/23 04:13:17;;;;;;;;;;;3.30;94.60;;;3.86;63.79;99959.72;5056083;27;109441;-73
2023/01/23 04:15:43;;;;;;;;;;;3.30;94.60;;;3.86;63.79;99965.19;5070505;27;108945;-73
2023/01/23 04:18:10;;;;;;;;;;;3.30;94.70;;;3.88;63.39;99967.69;5078721;27;124701;-73
2023/01/23 04:20:36;;;;;;;;;;;3.30;94.60;;;3.90;63.77;99981.97;5086470;27;124026;-73
2023/01/23 04:23:02;;;;;;;;;;;3.30;94.60;;;3.90;63.85;99976.50;5080529;27;109161;-71
2023/01/23 04:25:29;;;;;;;;;;;3.40;94.60;;;3.90;63.37;99977.31;5076999;27;108037;-71
2023/01/23 04:27:56;;;;;;;;;;;3.30;94.60;;;3.87;63.51;99974.22;5083101;27;123534;-71
2023/01/23 04:30:22;;;;;;;;;;;3.30;94.60;;;3.87;63.77;99985.16;5084740;27;123641;-71
2023/01/23 04:32:49;;;;;;;;;;;3.30;94.60;;;3.89;63.49;99991.22;5089659;27;110140;-72
2023/01/23 04:35:15;;;;;;;;;;;3.30;94.60;;;3.88;63.69;99984.91;5086967;27;109554;-72
2023/01/23 04:37:41;;;;;;;;;;;3.30;94.60;;;3.87;63.66;99993.34;5083784;27;124808;-72
2023/01/23 04:40:09;;;;;;;;;;;3.30;94.50;;;3.87;63.91;99985.16;5085024;27;124116;-72
2023/01/23 04:42:35;;;;;;;;;;;3.40;94.60;;;3.86;63.58;99989.78;5069048;27;110856;-72
2023/01/23 04:45:02;;;;;;;;;;;3.30;94.60;;;3.88;63.71;99984.09;5070071;27;110132;-72
2023/01/23 04:47:28;;;;;;;;;;;3.40;94.60;;;3.91;63.65;99986.34;5074001;27;122898;-72
2023/01/23 04:49:54;;;;;;;;;;;3.40;94.60;;;3.89;63.47;99986.56;5043792;27;123846;-73
2023/01/23 04:52:20;;;;;;;;;;;3.40;94.60;;;3.89;63.64;99991.22;5062389;27;108882;-73
2023/01/23 04:54:50;;;;;;;;;;;3.30;94.90;;;3.89;63.32;99997.50;5081337;27;108745;-73
2023/01/23 04:57:16;;;;;;;;;;;3.40;94.60;;;3.89;63.53;99997.50;5084762;27;124173;-73
2023/01/23 04:59:42;;;;;;;;;;;3.40;94.70;;;3.92;63.60;99998.94;5063274;27;123796;-73
2023/01/23 05:02:09;;;;;;;;;;;3.40;94.70;;;3.95;63.41;100003.94;5085347;27;109258;-72
2023/01/23 05:04:35;;;;;;;;;;;3.40;94.60;;;3.93;63.25;100001.44;5068508;27;108723;-71
2023/01/23 05:07:02;;;;;;;;;;;3.40;94.60;;;3.91;63.22;99994.53;5067524;27;124532;-72
2023/01/23 05:09:28;;;;;;;;;;;3.30;94.60;;;3.88;63.76;99995.84;5083291;27;124090;-72
2023/01/23 05:11:54;;;;;;;;;;;4.20;94.90;;;3.88;63.93;100000.50;5086321;27;109264;-72
2023/01/23 05:14:22;;;;;;;;;;;3.30;94.60;;;3.89;63.53;99997.50;5082949;27;109134;-72
2023/01/23 05:16:48;;;;;;;;;;;3.40;94.60;;;3.92;63.52;99986.13;5078827;27;124417;-73
2023/01/23 05:19:15;;;;;;;;;;;3.40;94.60;;;3.94;63.34;100005.00;5068909;27;122905;-72
2023/01/23 05:21:41;;;;;;;;;;;3.40;94.60;;;3.93;63.49;100006.09;5074827;27;110183;-73
2023/01/23 05:24:09;;;;;;;;;;;3.40;94.60;;;3.94;63.81;100011.28;5042075;27;108976;-73
2023/01/23 05:26:35;;;;;;;;;;;4.40;95.00;;;3.94;63.35;99997.63;5056127;27;124186;-73
2023/01/23 05:29:02;;;;;;;;;;;3.40;94.60;;;3.96;63.47;100008.34;5053397;27;123390;-73
2023/01/23 05:31:28;;;;;;;;;;;3.40;94.60;;;3.94;63.42;100011.28;5055707;27;109584;-72
2023/01/23 05:33:55;;;;;;;;;;;3.40;94.60;;;3.92;63.99;100001.66;5086623;27;108888;-72
2023/01/23 05:36:21;;;;;;;;;;;3.40;94.60;;;3.86;63.88;99995.25;5068654;27;123232;-72
2023/01/23 05:38:47;;;;;;;;;;;3.30;94.60;;;3.84;63.57;100005.63;5033277;27;122916;-72
2023/01/23 05:41:13;;;;;;;;;;;3.30;94.60;;;3.83;63.43;100001.19;5070506;27;108739;-72
2023/01/23 05:43:40;;;;;;;;;;;3.30;94.60;;;3.85;63.59;99999.06;5066925;27;107682;-72
2023/01/23 05:46:06;;;;;;;;;;;3.30;94.60;;;3.86;63.89;100003.47;5077962;27;124011;-73
2023/01/23 05:48:32;;;;;;;;;;;3.30;94.60;;;3.89;63.28;99999.41;5078137;27;123909;-73
2023/01/23 05:51:01;;;;;;;;;;;3.40;94.60;;;3.91;63.21;100003.56;5072043;27;108391;-72
2023/01/23 05:53:28;;;;;;;;;;;3.40;94.60;;;3.91;63.45;100000.00;5073537;27;108653;-71
2023/01/23 05:55:54;;;;;;;;;;;3.40;94.60;;;3.92;63.69;99994.31;5087835;27;124826;-72
2023/01/23 05:58:20;;;;;;;;;;;3.40;94.60;;;3.91;63.18;100006.31;5078083;27;124236;-72
2023/01/23 06:00:47;;;;;;;;;;;3.40;94.60;;;3.86;63.04;100008.09;5054693;27;109551;-76
2023/01/23 06:03:13;;;;;;;;;;;3.30;94.50;;;3.82;63.10;100010.50;5088532;27;108551;-72
2023/01/23 06:05:40;;;;;;;;;;;3.30;94.60;;;3.79;63.42;100015.56;5087965;27;125364;-72
2023/01/23 06:08:06;;;;;;;;;;;4.40;95.10;;;3.79;64.42;100021.91;5071575;27;123162;-72
2023/01/23 06:10:36;;;;;;;;;;;3.20;94.80;;;3.82;63.92;100007.75;5085083;27;110442;-72
2023/01/23 06:13:03;;;;;;;;;;;3.30;94.90;;;3.84;63.93;100016.56;5068522;27;109617;-73
2023/01/23 06:15:29;;;;;;;;;;;3.30;95.30;;;3.83;63.80;100008.56;5054451;27;124201;-72
2023/01/23 06:17:56;;;;;;;;;;;3.20;94.80;;;3.76;63.52;100023.22;5064712;27;123973;-72
2023/01/23 06:20:22;;;;;;;;;;;3.20;94.80;;;3.77;64.10;100021.31;5065178;27;109066;-72
2023/01/23 06:22:48;;;;;;;;;;;3.20;94.90;;;3.81;63.94;100016.19;5060549;27;108049;-72
2023/01/23 06:25:15;;;;;;;;;;;3.30;94.80;;;3.80;64.02;100022.72;5063218;27;124744;-72
2023/01/23 06:27:41;;;;;;;;;;;3.20;94.70;;;3.77;63.93;100021.31;5039688;27;123015;-71
2023/01/23 06:30:08;;;;;;;;;;;3.20;94.70;;;3.73;64.03;100028.28;5058338;27;109528;-72
2023/01/23 06:32:34;;;;;;;;;;;3.10;94.70;;;3.66;64.17;100031.16;5058757;27;108386;-72
2023/01/23 06:35:01;;;;;;;;;;;3.10;94.70;;;3.62;64.14;100031.84;5052767;27;124766;-72
2023/01/23 06:37:27;;;;;;;;;;;3.10;94.80;;;3.63;64.35;100036.28;5056980;27;124254;-73
2023/01/23 06:39:53;;;;;;;;;;;3.10;94.80;;;3.67;64.19;100059.31;5064535;27;109392;-72
2023/01/23 06:42:22;;;;;;;;;;;3.10;94.90;;;3.72;64.69;100053.97;5083915;27;108549;-77
2023/01/23 06:44:48;;;;;;;;;;;3.20;95.10;;;3.78;64.84;100069.41;5087849;27;124104;-72
2023/01/23 06:47:15;;;;;;;;;;;3.20;95.30;;;3.80;64.90;100070.03;5081335;27;123732;-72
2023/01/23 06:49:41;;;;;;;;;;;5.00;95.90;;;3.86;65.11;100058.13;5072619;27;109505;-72
2023/01/23 06:52:07;;;;;;;;;;;3.30;95.40;;;3.93;65.03;100075.25;5071029;27;108912;-72
2023/01/23 06:54:34;;;;;;;;;;;3.30;95.30;;;3.96;64.11;100080.25;5055997;27;123556;-72
2023/01/23 06:57:03;;;;;;;;;;;3.40;95.20;;;4.01;65.20;100067.78;5072941;27;123066;-73
2023/01/23 06:59:29;;;;;;;;;;;3.40;95.30;;;4.11;65.57;100074.31;5075786;27;110548;-72
2023/01/23 07:01:55;;;;;;;;;;;3.90;95.90;;;4.23;65.02;100084.41;5075333;27;109881;-73
2023/01/23 07:04:21;;;;;;;;;;;3.60;95.60;;;4.26;64.74;100090.22;5075559;27;125216;-73
2023/01/23 07:06:48;;;;;;;;;;;5.10;96.00;;;4.25;64.07;100076.81;5074953;27;123686;-72
2023/01/23 07:09:14;;;;;;;;;;;3.60;95.20;;;4.23;64.23;100092.63;5069574;27;109350;-72
2023/01/23 07:11:41;;;;;;;;;;;3.60;95.10;;;4.23;63.65;100078.94;5065252;27;108676;-73
2023/01/23 07:14:07;;;;;;;;;;;3.60;95.00;;;4.21;63.81;100090.09;5073116;27;124355;-78
2023/01/23 07:16:34;;;;;;;;;;;3.60;94.90;;;4.16;63.60;100098.19;5076595;27;124185;-72
2023/01/23 07:19:02;;;;;;;;;;;3.50;95.10;;;4.15;63.37;100096.53;5077582;27;109098;-73
2023/01/23 07:21:29;;;;;;;;;;;3.50;94.80;;;4.13;63.27;100098.69;5085230;27;108430;-73
2023/01/23 07:23:55;;;;;;;;;;;3.60;94.80;;;4.09;63.57;100097.50;5077366;27;124094;-72
2023/01/23 07:26:21;;;;;;;;;;;3.50;94.70;;;4.11;63.65;100101.66;5053613;27;122857;-73
2023/01/23 07:28:47;;;;;;;;;;;3.60;94.70;;;4.13;63.06;100104.16;5064754;27;109286;-73
2023/01/23 07:31:14;;;;;;;;;;;3.60;94.70;;;4.16;63.73;100103.66;5057679;27;108132;-73
2023/01/23 07:33:40;;;;;;;;;;;3.60;94.70;;;4.16;63.58;100104.53;5046334;27;123860;-74
2023/01/23 07:36:07;;;;;;;;;;;3.60;94.70;;;4.15;63.44;100099.28;5063103;27;124464;-72
2023/01/23 07:38:34;;;;;;;;;;;3.60;94.70;;;4.16;62.96;100111.88;5057782;27;109396;-72
2023/01/23 07:41:01;;;;;;;;;;;3.60;94.70;;;4.17;63.74;100119.03;5070337;27;108780;-72
2023/01/23 07:43:28;;;;;;;;;;;3.60;94.70;;;4.17;63.54;100108.09;5071887;27;124868;-73
2023/01/23 07:45:57;;;;;;;;;;;3.60;94.60;;;4.20;62.96;100107.59;5053025;27;124387;-73
2023/01/23 07:48:24;;;;;;;;;;;3.70;94.60;;;4.18;63.08;100105.09;5051108;27;110253;-71
2023/01/23 07:50:50;;;;;;;;;;;3.60;94.60;;;4.19;63.42;100103.19;5047234;27;109898;-72
2023/01/23 07:53:16;;;;;;;;;;;3.60;94.60;;;4.20;63.41;100108.44;5047890;27;124308;-78
2023/01/23 07:55:43;;;;;;;;;;;3.70;94.60;;;4.21;63.71;100109.25;5047874;27;123594;-73
2023/01/23 07:58:09;;;;;;;;;;;3.60;94.50;;;4.23;63.28;100106.31;5058771;27;109234;-72
2023/01/23 08:00:40;;;;;;;;;;;3.70;94.60;;;4.20;63.06;100102.97;5053709;27;108899;-72
2023/01/23 08:03:06;;;;;;;;;;;5.10;95.10;;;4.18;63.12;100096.06;5041469;27;123865;-74
2023/01/23 08:05:33;;;;;;;;;;;3.60;94.50;;;4.17;63.74;100099.88;5061002;27;123699;-72
2023/01/23 08:07:59;;;;;;;;;;;3.60;94.60;;;4.19;63.25;100100.44;5068661;27;109415;-72
2023/01/23 08:10:25;;;;;;;;;;;3.60;94.50;;;4.20;62.93;100093.94;5056685;27;108598;-73
2023/01/23 08:12:51;;;;;;;;;;;3.60;94.50;;;4.21;62.73;100099.16;5052040;27;124342;-73
2023/01/23 08:15:19;;;;;;;;;;;3.60;94.50;;;4.25;63.42;100099.53;5056602;27;122761;-72
2023/01/23 08:17:45;;;;;;;;;;;3.70;94.50;;;4.24;62.76;100094.28;5051387;27;109316;-73
2023/01/23 08:20:11;;;;;;;;;;;3.70;94.40;;;4.26;62.81;100090.22;5056312;27;108439;-73
2023/01/23 08:22:39;;;;;;;;;;;3.70;94.40;;;4.29;62.90;100094.38;5051845;27;124795;-73
2023/01/23 08:25:08;;;;;;;;;;;3.70;94.40;;;4.31;62.76;100092.25;5039575;27;123162;-73
2023/01/23 08:27:35;;;;;;;;;;;3.80;94.40;;;4.32;62.62;100097.47;5055245;27;109420;-72
2023/01/23 08:30:02;;;;;;;;;;;3.80;94.40;;;4.31;62.24;100095.81;5061256;27;108606;-72
2023/01/23 08:32:28;;;;;;;;;;;3.80;94.30;;;4.35;62.37;100102.50;5046027;27;123989;-73
2023/01/23 08:34:55;;;;;;;;;;;3.80;94.30;;;4.36;62.65;100095.94;5059057;27;124053;-73
2023/01/23 08:37:22;;;;;;;;;;;3.80;94.20;;;4.35;62.49;100088.81;5065123;27;110507;-74
2023/01/23 08:39:48;;;;;;;;;;;3.80;94.20;;;4.36;62.61;100090.47;5047696;27;109384;-73
2023/01/23 08:42:14;;;;;;;;;;;3.80;94.20;;;4.34;61.71;100087.13;5060192;27;124179;-73
2023/01/23 08:44:40;;;;;;;;;;;3.80;94.00;;;4.26;61.71;100090.22;5052927;27;123731;-73
2023/01/23 08:47:07;;;;;;;;;;;3.60;94.00;;;4.19;61.76;100089.50;5052233;27;109217;-74
2023/01/23 08:49:33;;;;;;;;;;;3.60;94.00;;;4.19;61.95;100089.50;5055294;27;108593;-73
2023/01/23 08:51:59;;;;;;;;;;;3.60;94.10;;;4.19;62.83;100090.38;5037631;27;123351;-73
2023/01/23 08:54:25;;;;;;;;;;;3.70;94.10;;;4.20;62.08;100091.19;5051367;27;124571;-74
2023/01/23 08:56:52;;;;;;;;;;;3.60;94.00;;;4.20;62.36;100091.19;5039060;27;109080;-72
2023/01/23 08:59:18;;;;;;;;;;;3.70;94.00;;;4.24;62.56;100091.53;5060082;27;108564;-73
2023/01/23 09:01:46;;;;;;;;;;;3.70;94.00;;;4.27;62.34;100086.44;5067821;27;124441;-78
2023/01/23 09:04:13;;;;;;;;;;;3.70;93.90;;;4.29;61.69;100095.22;5067676;27;123799;-71
2023/01/23 09:06:39;;;;;;;;;;;3.70;93.70;;;4.27;61.56;100091.91;5070497;27;109334;-72
2023/01/23 09:09:05;;;;;;;;;;;3.70;93.70;;;4.25;61.93;100102.25;5067610;27;108959;-70
2023/01/23 09:11:32;;;;;;;;;;;3.70;93.60;;;4.25;61.09;100088.56;5073185;27;124176;-71
2023/01/23 09:14:19;;;;;;;;;;;3.70;93.60;;;4.29;60.98;100078.81;5069190;27;123917;-79
2023/01/23 09:16:45;;;;;;;;;;;3.70;93.50;;;4.28;60.94;100092.75;5046050;27;108496;-70
2023/01/23 09:19:11;;;;;;;;;;;3.70;93.20;;;4.25;60.47;100096.78;5081802;27;108670;-71
2023/01/23 09:21:38;;;;;;;;;;;3.60;93.10;;;4.21;60.25;100098.31;5078571;27;125018;-75
2023/01/23 09:24:05;;;;;;;;;;;3.60;93.00;;;4.19;60.12;100093.09;5071757;27;124554;-76
2023/01/23 09:26:31;;;;;;;;;;;3.60;92.80;;;4.22;59.57;100105.47;5089159;27;110513;-75
2023/01/23 09:28:57;;;;;;;;;;;3.60;92.80;;;4.25;59.63;100109.63;5083612;27;109772;-72
2023/01/23 09:31:24;;;;;;;;;;;3.60;92.50;;;4.24;59.40;100099.75;5085756;27;123902;-72
2023/01/23 09:33:50;;;;;;;;;;;3.60;92.20;;;4.20;58.08;100096.66;5076362;27;124578;-71
2023/01/23 09:36:16;;;;;;;;;;;3.60;91.90;;;4.16;58.19;100100.94;5051647;27;109631;-76
2023/01/23 09:38:47;;;;;;;;;;;3.50;91.80;;;4.12;57.96;100097.84;5058776;27;107813;-75
2023/01/23 09:41:20;;;;;;;;;;;3.50;91.80;;;4.10;58.20;100096.41;5060681;27;124359;-71
2023/01/23 09:43:56;;;;;;;;;;;3.50;91.60;;;4.06;58.04;100106.19;5065806;27;123982;-75
2023/01/23 09:46:35;;;;;;;;;;;3.40;91.60;;;4.07;59.00;100105.94;5060063;27;108834;-74
2023/01/23 09:49:20;;;;;;;;;;;3.50;91.80;;;4.06;58.49;100100.72;5057983;27;108959;-72
2023/01/23 09:52:10;;;;;;;;;;;3.50;91.80;;;4.09;58.43;100105.72;5044082;27;123043;-72
2023/01/23 09:54:39;;;;;;;;;;;3.50;91.80;;;4.19;59.79;100111.38;5066935;27;123751;-72
2023/01/23 09:57:13;;;;;;;;;;;3.50;92.50;;;4.32;60.90;100113.88;5074878;27;109326;-72
2023/01/23 09:59:42;;;;;;;;;;;3.70;93.10;;;4.44;59.84;100108.41;5054991;27;108724;-71
2023/01/23 10:02:18;;;;;;;;;;;3.80;92.80;;;4.58;59.79;100118.03;5065723;27;124737;-72
2023/01/23 10:04:50;;;;;;;;;;;3.90;93.00;;;4.68;59.33;100114.69;5069043;27;123962;-72
2023/01/23 10:07:28;;;;;;;;;;;4.00;92.60;;;4.70;59.01;100107.06;5057450;27;111113;-72
2023/01/23 10:10:01;;;;;;;;;;;4.00;92.20;;;4.79;60.31;100107.53;5026651;27;107815;-72
2023/01/23 10:12:42;;;;;;;;;;;4.10;92.90;;;4.96;60.03;100107.59;5063348;27;123108;-71
2023/01/23 10:15:26;;;;;;;;;;;4.20;92.90;;;5.23;60.98;100105.91;5068399;27;124280;-71
2023/01/23 10:18:12;;;;;;;;;;;4.50;93.70;;;5.45;59.78;100107.97;5071340;27;110598;-70
2023/01/23 10:20:59;;;;;;;;;;;4.70;93.60;;;5.53;57.78;100115.78;5041332;27;109771;-70
2023/01/23 10:23:39;;;;;;;;;;;4.70;92.10;;;5.48;57.30;100118.44;5091409;27;124990;-70
2023/01/23 10:26:15;;;;;;;;;;;4.70;91.90;;;5.42;56.15;100103.81;5070161;27;123571;-71
2023/01/23 10:28:42;;;;;;;;;;;4.70;91.30;;;5.36;56.47;100115.75;5069746;27;109347;-71
2023/01/23 10:31:31;;;;;;;;;;;4.70;91.30;;;5.31;56.03;100108.25;5069606;27;108741;-70
2023/01/23 10:34:21;;;;;;;;;;;4.60;91.00;;;5.26;56.21;100102.69;5067004;27;123973;-70
2023/01/23 10:37:02;;;;;;;;;;;4.60;91.10;;;5.26;56.13;100107.34;5032815;27;122605;-70
2023/01/23 10:39:36;;;;;;;;;;;4.60;90.90;;;5.20;56.44;100105.59;5071664;27;109378;-70
2023/01/23 10:42:09;;;;;;;;;;;4.60;90.80;;;5.12;55.23;100109.53;5053111;27;108765;-70
2023/01/23 10:44:35;;;;;;;;;;;4.50;90.80;;;5.03;56.47;100100.06;5050744;27;124028;-70
2023/01/23 10:47:04;;;;;;;;;;;4.40;90.80;;;5.00;57.00;100106.03;5050889;27;123436;-70
2023/01/23 10:49:36;;;;;;;;;;;4.40;90.90;;;5.02;56.83;100098.38;5031016;27;108392;-71
2023/01/23 10:52:04;;;;;;;;;;;4.40;91.00;;;5.04;56.79;100101.72;5045612;27;108824;-70
2023/01/23 10:54:44;;;;;;;;;;;4.50;91.00;;;5.06;56.41;100094.09;5059489;27;124238;-72
2023/01/23 10:57:15;;;;;;;;;;;4.50;90.90;;;5.05;56.34;100095.16;5069939;27;124455;-70
2023/01/23 10:59:53;;;;;;;;;;;4.50;90.90;;;5.06;56.73;100088.63;5082234;27;109605;-70
2023/01/23 11:02:25;;;;;;;;;;;4.50;90.80;;;5.00;55.96;100092.34;5057028;27;108072;-71
2023/01/23 11:04:51;;;;;;;;;;;4.40;90.70;;;4.94;55.72;100096.03;5058453;27;124365;-71
2023/01/23 11:07:26;;;;;;;;;;;4.30;90.60;;;4.92;56.28;100087.25;5062911;27;122987;-70
2023/01/23 11:10:02;;;;;;;;;;;4.30;90.80;;;4.95;56.28;100084.03;5063312;27;110254;-70
2023/01/23 11:12:31;;;;;;;;;;;4.30;90.80;;;4.91;56.54;100080.09;5086546;27;109797;-70
2023/01/23 11:15:27;;;;;;;;;;;4.30;90.80;;;4.95;56.85;100075.81;5065047;27;124967;-70
2023/01/23 11:17:58;;;;;;;;;;;4.40;90.90;;;4.97;57.78;100077.22;5074714;27;123870;-71
2023/01/23 11:20:32;;;;;;;;;;;4.40;91.30;;;5.01;57.02;100080.31;5071807;27;109549;-71
2023/01/23 11:23:03;;;;;;;;;;;4.40;91.10;;;5.03;57.18;100072.69;5038478;27;107726;-72
2023/01/23 11:25:33;;;;;;;;;;;4.40;91.50;;;5.15;57.95;100075.34;5047290;27;124244;-73
2023/01/23 11:28:02;;;;;;;;;;;4.50;91.80;;;5.21;57.47;100058.78;5069608;27;123779;-72
2023/01/23 11:30:44;;;;;;;;;;;4.50;91.80;;;5.39;58.48;100056.88;5057455;27;109588;-71
2023/01/23 11:33:53;;;;;;;;;;;4.60;92.10;;;5.66;57.17;100055.16;5041506;27;107810;-71
2023/01/23 11:36:48;;;;;;;;;;;4.80;91.90;;;5.62;55.62;100051.25;5052935;27;123072;-71